Flight Track Log - Related Links

Times and Time Zones

All times are in EDT time to prevent confusion due to time zone crossing. See the UAL6136 flight status page for this flight to view local times or setup timezone preferences in your user account.

Time Position Orientation Groundspeed Altitude Reporting Facility
EDT Latitude Longitude Course Direction KTS MPH feet Rate Location/Type
Sat 10:25:31 AM 40.6883 -89.7417 North 166 191 2,700  Level Chicago Center
Sat 10:26:32 AM 40.7408 -89.7536 350° North 238 274 4,200 2,488 Climbing Chicago Center
Sat 10:27:00 AM 40.8836 -89.6366 North  Level FlightAware Approximate
Sat 10:27:34 AM 40.8208 -89.7214 17° North 250 288 7,800  Level Chicago Center
Sat 10:28:00 AM 40.9616 -89.6221 11° North  Level FlightAware Approximate
Sat 10:28:36 AM 40.8881 -89.6956 16° North 252 290 9,900  Level Chicago Center
Sat 10:29:00 AM 41.0386 -89.6000 North  Level FlightAware Approximate
Sat 10:29:38 AM 40.9644 -89.6656 17° North 276 318 11,400  Level Chicago Center
Sat 10:30:00 AM 41.1170 -89.5888 North  Level FlightAware Approximate
Sat 10:30:39 AM 41.0517 -89.6233 20° North 326 375 12,600  Level Chicago Center
Sat 10:31:41 AM 41.1156 -89.5139 52° Northeast 376 433 13,100 242 Climbing Chicago Center
Sat 10:32:43 AM 41.1758 -89.3911 57° Northeast 391 450 13,100 -439 Level Chicago Center
Sat 10:33:44 AM 41.2361 -89.2700 56° Northeast 393 452 12,200 -976 Descending Chicago Center
Sat 10:34:46 AM 41.3039 -89.1306 57° Northeast 376 433 11,100 -532 Descending Chicago Center
Sat 10:35:48 AM 41.3606 -89.0147 57° Northeast 374 430 11,100  Level Chicago Center
Sat 10:36:50 AM 41.4183 -88.9008 56° Northeast 373 429 11,100 -49 Level Chicago Center
Sat 10:37:51 AM 41.4742 -88.7847 57° Northeast 372 428 11,000 -49 Descending Chicago Center
Sat 10:38:53 AM 41.5283 -88.6681 58° Northeast 372 428 11,000 48 Level Chicago Center
Sat 10:39:55 AM 41.5806 -88.5439 61° Northeast 381 438 11,100  Climbing Chicago Center
Sat 10:40:57 AM 41.6622 -88.4194 49° Northeast 368 423 11,000 -48 Descending Chicago Center
Sat 10:41:59 AM 41.7292 -88.3136 50° Northeast 370 426 11,000 -146 Level Chicago Center
Sat 10:43:00 AM 41.7925 -88.2122 50° Northeast 358 412 10,700 -829 Descending Chicago Center
Sat 10:44:02 AM 41.8278 -88.1169 64° Northeast 303 349 9,300 -1,500 Descending Chicago Center
Sat 10:45:04 AM 41.8531 -88.0150 72° East 291 335 7,600 -1,113 Descending Chicago Center
Sat 10:46:06 AM 41.8775 -87.9172 71° East 282 325 7,000 -293 Descending Chicago Center
Sat 10:47:07 AM 41.8978 -87.8286 73° East 261 300 7,000 -772 Level Chicago Center
Sat 10:47:47 AM 41.9000 -87.7500 88° East 239 275 5,700 -1,642 Descending Chicago TRACON
Sat 10:48:53 AM 41.9333 -87.7000 48° Northeast 212 244 4,100 -1,455 Descending Chicago TRACON

Login

Don't have an account? Register now (free) for customized features, flight alerts, and more!